createdAt,value
2017-10-20T00:01:07.475Z,0.00
2017-10-20T00:02:07.473Z,0.00
2017-10-20T00:04:00.852Z,0.00
2017-10-20T00:05:00.857Z,0.00
2017-10-20T00:06:54.267Z,0.00
2017-10-20T00:07:54.264Z,0.00
2017-10-20T00:09:47.145Z,0.00
2017-10-20T00:10:47.148Z,0.00
2017-10-20T00:12:40.560Z,0.00
2017-10-20T00:13:40.541Z,0.00
2017-10-20T00:15:33.937Z,0.00
2017-10-20T00:16:33.936Z,0.00
2017-10-20T00:18:27.342Z,0.00
2017-10-20T00:19:27.328Z,0.00
2017-10-20T00:21:20.715Z,0.00
2017-10-20T00:22:20.721Z,0.00
2017-10-20T00:24:14.128Z,0.00
2017-10-20T00:25:14.114Z,0.00
2017-10-20T00:27:07.503Z,0.00
2017-10-20T00:28:07.507Z,0.00
2017-10-20T00:30:00.915Z,0.00
2017-10-20T00:31:00.902Z,0.00
2017-10-20T00:32:54.329Z,0.00
2017-10-20T00:33:54.296Z,0.00
2017-10-20T00:35:47.681Z,0.00
2017-10-20T00:36:47.694Z,0.00
2017-10-20T00:38:41.095Z,0.00
2017-10-20T00:39:41.086Z,0.00
2017-10-20T00:41:34.480Z,0.00
2017-10-20T00:42:34.475Z,0.00
2017-10-20T00:44:27.883Z,0.00
2017-10-20T00:45:27.868Z,0.00
2017-10-20T00:47:21.256Z,0.00
2017-10-20T00:48:21.271Z,0.00
2017-10-20T00:50:14.669Z,0.00
2017-10-20T00:51:14.654Z,0.00
2017-10-20T00:53:08.044Z,0.00
2017-10-20T00:54:08.049Z,0.00
2017-10-20T00:56:01.456Z,0.00
2017-10-20T00:57:01.442Z,0.00
2017-10-20T00:58:54.841Z,0.00
2017-10-20T00:59:54.846Z,0.00
2017-10-20T01:01:48.255Z,0.00
2017-10-20T01:02:48.244Z,0.00
2017-10-20T01:04:41.629Z,0.00
2017-10-20T01:05:41.636Z,0.00
2017-10-20T01:07:35.041Z,0.00
2017-10-20T01:08:35.031Z,0.00
2017-10-20T01:10:27.921Z,0.00
2017-10-20T01:11:27.925Z,0.00
2017-10-20T01:13:21.332Z,0.00
2017-10-20T01:14:21.327Z,0.00
2017-10-20T01:16:14.709Z,0.00
2017-10-20T01:17:14.713Z,0.00
2017-10-20T01:19:07.627Z,0.00
2017-10-20T01:20:07.614Z,0.00
2017-10-20T01:22:01.001Z,0.00
2017-10-20T01:23:01.004Z,0.00
2017-10-20T01:24:54.414Z,0.00
2017-10-20T01:25:54.400Z,0.00
2017-10-20T01:27:47.790Z,0.00
2017-10-20T01:28:47.797Z,0.00
2017-10-20T01:30:41.200Z,0.00
2017-10-20T01:31:41.186Z,0.00
2017-10-20T01:33:34.586Z,0.00
2017-10-20T01:34:34.592Z,0.00
2017-10-20T01:36:27.997Z,0.00
2017-10-20T01:37:27.983Z,0.00
2017-10-20T01:39:21.391Z,0.00
2017-10-20T01:40:21.376Z,0.00
2017-10-20T01:42:14.767Z,0.00
2017-10-20T01:43:14.774Z,0.00
2017-10-20T01:45:08.201Z,0.00
2017-10-20T01:46:08.164Z,0.00
2017-10-20T01:48:01.551Z,0.00
2017-10-20T01:49:01.554Z,0.00
2017-10-20T01:50:54.969Z,0.00
2017-10-20T01:51:54.951Z,0.00
2017-10-20T01:53:48.342Z,0.00
2017-10-20T01:54:48.344Z,0.00
2017-10-20T01:56:41.756Z,0.00
2017-10-20T01:57:41.754Z,0.00
2017-10-20T01:59:36.131Z,0.00
2017-10-20T02:00:36.136Z,0.00
2017-10-20T02:02:29.548Z,0.00
2017-10-20T02:03:29.529Z,0.00
2017-10-20T02:05:22.917Z,0.00
2017-10-20T02:06:22.933Z,0.00
2017-10-20T02:08:16.348Z,0.00
2017-10-20T02:09:16.328Z,0.00
2017-10-20T02:11:09.734Z,0.00
2017-10-20T02:12:09.721Z,0.00
2017-10-20T02:14:03.108Z,0.00
2017-10-20T02:15:03.114Z,0.00
2017-10-20T02:16:56.520Z,0.00
2017-10-20T02:17:56.506Z,0.00
2017-10-20T02:19:49.893Z,0.00
2017-10-20T02:20:49.897Z,0.00
2017-10-20T02:22:43.330Z,0.00
2017-10-20T02:23:43.297Z,0.00
2017-10-20T02:25:36.680Z,0.00
2017-10-20T02:26:36.693Z,0.00
2017-10-20T02:28:30.095Z,0.00
2017-10-20T02:29:30.109Z,0.00
2017-10-20T02:31:23.470Z,0.00
2017-10-20T02:32:23.473Z,0.00
2017-10-20T02:34:16.882Z,0.00
2017-10-20T02:35:16.866Z,0.00
2017-10-20T02:37:10.264Z,0.00
2017-10-20T02:38:10.263Z,0.00
2017-10-20T02:40:03.665Z,0.00
2017-10-20T02:41:03.652Z,0.00
2017-10-20T02:42:57.039Z,0.00
2017-10-20T02:43:57.046Z,0.00
2017-10-20T02:45:50.451Z,0.00
2017-10-20T02:46:50.442Z,0.00
2017-10-20T02:48:43.849Z,0.00
2017-10-20T02:49:43.831Z,0.00
2017-10-20T02:51:37.236Z,0.00
2017-10-20T02:52:37.249Z,0.00
2017-10-20T02:54:30.646Z,0.00
2017-10-20T02:55:30.632Z,0.00
2017-10-20T02:57:24.025Z,0.00
2017-10-20T02:58:24.029Z,0.00
2017-10-20T03:00:17.437Z,0.00
2017-10-20T03:01:17.424Z,0.00
2017-10-20T03:03:10.811Z,0.00
2017-10-20T03:04:10.813Z,0.00
2017-10-20T03:06:04.231Z,0.00
2017-10-20T03:07:04.217Z,0.00
2017-10-20T03:08:57.623Z,0.00
2017-10-20T03:09:57.688Z,0.00
2017-10-20T03:11:51.032Z,0.00
2017-10-20T03:12:51.010Z,0.00
2017-10-20T03:14:44.400Z,0.00
2017-10-20T03:15:44.404Z,0.00
2017-10-20T03:17:37.809Z,0.00
2017-10-20T03:18:37.797Z,0.00
2017-10-20T03:20:31.195Z,0.00
2017-10-20T03:21:31.190Z,0.00
2017-10-20T03:23:24.596Z,0.00
2017-10-20T03:24:24.583Z,0.00
2017-10-20T03:26:18.041Z,0.00
2017-10-20T03:27:18.030Z,0.00
2017-10-20T03:29:11.405Z,0.00
2017-10-20T03:30:11.393Z,0.00
2017-10-20T03:32:04.780Z,0.00
2017-10-20T03:33:04.784Z,0.00
2017-10-20T03:34:58.193Z,0.00
2017-10-20T03:35:58.202Z,0.00
2017-10-20T03:37:51.564Z,0.00
2017-10-20T03:38:51.570Z,0.00
2017-10-20T03:40:44.977Z,0.00
2017-10-20T03:41:44.963Z,0.00
2017-10-20T03:43:38.375Z,0.00
2017-10-20T03:44:38.357Z,0.00
2017-10-20T03:46:31.746Z,0.00
2017-10-20T03:47:31.749Z,0.00
2017-10-20T03:49:25.161Z,0.00
2017-10-20T03:50:25.139Z,0.00
2017-10-20T03:52:18.529Z,0.00
2017-10-20T03:53:18.532Z,0.00
2017-10-20T03:55:11.954Z,0.00
2017-10-20T03:56:11.930Z,0.00
2017-10-20T03:58:05.315Z,0.00
2017-10-20T03:59:05.322Z,0.00
2017-10-20T04:00:58.759Z,0.00
2017-10-20T04:01:58.725Z,0.00
2017-10-20T04:03:52.182Z,0.00
2017-10-20T04:04:52.125Z,0.00
2017-10-20T04:06:45.522Z,0.00
2017-10-20T04:07:45.525Z,0.00
2017-10-20T04:09:38.901Z,0.00
2017-10-20T04:10:38.908Z,0.00
2017-10-20T04:12:32.307Z,0.00
2017-10-20T04:13:32.292Z,0.00
2017-10-20T04:15:25.688Z,0.00
2017-10-20T04:16:25.693Z,0.00
2017-10-20T04:18:19.118Z,0.00
2017-10-20T04:19:19.107Z,0.00
2017-10-20T04:21:12.483Z,0.00
2017-10-20T04:22:12.491Z,0.00
2017-10-20T04:24:05.897Z,0.00
2017-10-20T04:25:05.881Z,0.00
2017-10-20T04:26:59.267Z,0.00
2017-10-20T04:27:59.275Z,0.00
2017-10-20T04:29:52.240Z,0.00
2017-10-20T04:30:52.184Z,0.00
2017-10-20T04:32:45.567Z,0.00
2017-10-20T04:33:45.578Z,0.00
2017-10-20T04:35:38.975Z,0.00
2017-10-20T04:36:38.961Z,0.00
2017-10-20T04:38:32.353Z,0.00
2017-10-20T04:39:32.350Z,0.00
2017-10-20T04:41:25.261Z,0.00
2017-10-20T04:42:25.245Z,0.00
2017-10-20T04:44:18.632Z,0.00
2017-10-20T04:45:18.637Z,0.00
2017-10-20T04:47:12.059Z,0.00
2017-10-20T04:48:12.039Z,0.00
2017-10-20T04:50:05.425Z,0.00
2017-10-20T04:51:05.430Z,0.00
2017-10-20T04:52:58.836Z,0.00
2017-10-20T04:53:58.822Z,0.00
2017-10-20T04:55:52.235Z,0.00
2017-10-20T04:56:52.240Z,0.00
2017-10-20T04:58:45.648Z,0.00
2017-10-20T04:59:45.634Z,0.00
2017-10-20T05:01:39.025Z,0.00
2017-10-20T05:02:39.040Z,0.00
2017-10-20T05:04:32.434Z,0.00
2017-10-20T05:05:32.440Z,0.00
2017-10-20T05:07:26.825Z,0.00
2017-10-20T05:08:26.850Z,0.00
2017-10-20T05:10:20.230Z,0.00
2017-10-20T05:11:20.205Z,0.00
2017-10-20T05:13:13.640Z,0.00
2017-10-20T05:14:13.600Z,0.00
2017-10-20T05:16:07.827Z,0.00
2017-10-20T05:17:14.606Z,0.00
2017-10-20T05:19:00.417Z,0.00
2017-10-20T05:20:00.383Z,0.00
2017-10-20T05:21:53.771Z,4.00
2017-10-20T05:22:53.783Z,0.00
2017-10-20T05:24:47.189Z,4.00
2017-10-20T05:25:47.172Z,0.00
2017-10-20T05:27:40.553Z,4.00
2017-10-20T05:28:40.558Z,4.00
2017-10-20T05:30:33.980Z,8.00
2017-10-20T05:31:33.962Z,8.00
2017-10-20T05:33:27.352Z,12.00
2017-10-20T05:34:27.357Z,16.00
2017-10-20T05:36:20.760Z,20.00
2017-10-20T05:37:20.747Z,20.00
2017-10-20T05:39:14.137Z,28.00
2017-10-20T05:40:14.140Z,36.00
2017-10-20T05:42:07.549Z,44.00
2017-10-20T05:43:07.533Z,48.00
2017-10-20T05:45:00.922Z,60.00
2017-10-20T05:46:00.926Z,68.00
2017-10-20T05:47:54.330Z,80.00
2017-10-20T05:48:54.336Z,88.00
2017-10-20T05:50:47.765Z,104.00
2017-10-20T05:51:47.752Z,116.00
2017-10-20T05:53:41.231Z,132.00
2017-10-20T05:54:49.791Z,140.00
2017-10-20T05:56:34.563Z,160.00
2017-10-20T05:57:34.545Z,172.00
2017-10-20T05:59:28.222Z,196.00
2017-10-20T06:00:27.927Z,208.00
2017-10-20T06:02:21.349Z,232.00
2017-10-20T06:03:21.394Z,244.00
2017-10-20T06:05:15.855Z,272.00
2017-10-20T06:06:15.764Z,284.00
2017-10-20T06:08:09.131Z,312.00
2017-10-20T06:09:09.158Z,324.00
2017-10-20T06:11:03.550Z,356.00
2017-10-20T06:12:03.569Z,376.00
2017-10-20T06:13:57.936Z,412.00
2017-10-20T06:14:58.033Z,432.00
2017-10-20T06:16:51.380Z,460.00
2017-10-20T06:17:51.313Z,476.00
2017-10-20T06:19:44.763Z,504.00
2017-10-20T06:20:44.751Z,520.00
2017-10-20T06:22:39.140Z,548.00
2017-10-20T06:23:39.119Z,560.00
2017-10-20T06:25:33.553Z,592.00
2017-10-20T06:26:33.580Z,608.00
2017-10-20T06:28:26.997Z,636.00
2017-10-20T06:29:26.923Z,648.00
2017-10-20T06:31:20.421Z,672.00
2017-10-20T06:32:20.346Z,684.00
2017-10-20T06:34:13.726Z,708.00
2017-10-20T06:35:13.717Z,720.00
2017-10-20T06:37:07.206Z,740.00
2017-10-20T06:38:07.163Z,748.00
2017-10-20T06:40:00.589Z,764.00
2017-10-20T06:41:00.507Z,776.00
2017-10-20T06:42:53.956Z,804.00
2017-10-20T06:43:53.921Z,812.00
2017-10-20T06:45:47.340Z,828.00
2017-10-20T06:46:47.317Z,832.00
2017-10-20T06:48:40.741Z,848.00
2017-10-20T06:49:40.742Z,856.00
2017-10-20T06:51:34.095Z,872.00
2017-10-20T06:52:34.107Z,880.00
2017-10-20T06:54:27.474Z,900.00
2017-10-20T06:55:27.476Z,904.00
2017-10-20T06:57:20.881Z,916.00
2017-10-20T06:58:20.887Z,920.00
2017-10-20T07:00:14.301Z,936.00
2017-10-20T07:01:14.311Z,940.00
2017-10-20T07:03:07.752Z,956.00
2017-10-20T07:04:07.734Z,964.00
2017-10-20T07:06:02.099Z,976.00
2017-10-20T07:07:02.097Z,984.00
2017-10-20T07:08:55.465Z,992.00
2017-10-20T07:09:55.481Z,1000.00
2017-10-20T07:11:48.866Z,1016.00
2017-10-20T07:12:48.886Z,1020.00
2017-10-20T07:14:42.261Z,1044.00
2017-10-20T07:15:42.281Z,1052.00
2017-10-20T07:17:35.665Z,1068.00
2017-10-20T07:18:35.689Z,1076.00
2017-10-20T07:20:29.110Z,1084.00
2017-10-20T07:21:29.074Z,1100.00
2017-10-20T07:23:22.479Z,1132.00
2017-10-20T07:24:22.518Z,1148.00
2017-10-20T07:26:16.844Z,1172.00
2017-10-20T07:27:16.879Z,1184.00
2017-10-20T07:29:11.885Z,1212.00
2017-10-20T07:30:12.297Z,1220.00
2017-10-20T07:32:06.635Z,1240.00
2017-10-20T07:33:06.570Z,1252.00
2017-10-20T07:34:59.780Z,1276.00
2017-10-20T07:35:59.607Z,1288.00
2017-10-20T07:37:53.141Z,1320.00
2017-10-20T07:38:53.026Z,1324.00
2017-10-20T07:40:47.545Z,1340.00
2017-10-20T07:41:56.050Z,1356.00
2017-10-20T07:43:42.446Z,1372.00
2017-10-20T07:44:40.827Z,1388.00
2017-10-20T07:46:34.242Z,1416.00
2017-10-20T07:47:34.258Z,1432.00
2017-10-20T07:49:27.644Z,1464.00
2017-10-20T07:50:27.627Z,1484.00
2017-10-20T07:52:21.053Z,1520.00
2017-10-20T07:53:21.052Z,1540.00
2017-10-20T07:55:14.423Z,1588.00
2017-10-20T07:56:14.428Z,1620.00
2017-10-20T07:58:07.828Z,1672.00
2017-10-20T07:59:07.815Z,1708.00
2017-10-20T08:01:01.240Z,1768.00
2017-10-20T08:02:01.245Z,1792.00
2017-10-20T08:03:54.667Z,1844.00
2017-10-20T08:04:54.661Z,1868.00
2017-10-20T08:06:48.046Z,1916.00
2017-10-20T08:07:48.044Z,1968.00
2017-10-20T08:09:41.472Z,2032.00
2017-10-20T08:10:41.441Z,2048.00
2017-10-20T08:12:34.902Z,2056.00
2017-10-20T08:13:34.919Z,2048.00
2017-10-20T08:15:28.781Z,2060.00
2017-10-20T08:16:28.885Z,2072.00
2017-10-20T08:18:21.717Z,2060.00
2017-10-20T08:19:21.697Z,2052.00
2017-10-20T08:21:16.077Z,1968.00
2017-10-20T08:22:16.063Z,1928.00
2017-10-20T08:24:09.454Z,1876.00
2017-10-20T08:25:09.460Z,1828.00
2017-10-20T08:27:02.869Z,1820.00
2017-10-20T08:28:02.855Z,1836.00
2017-10-20T08:29:56.271Z,1760.00
2017-10-20T08:30:56.248Z,1692.00
2017-10-20T08:32:49.640Z,1716.00
2017-10-20T08:33:49.656Z,1712.00
2017-10-20T08:35:43.058Z,1800.00
2017-10-20T08:36:43.051Z,1896.00
2017-10-20T08:38:36.454Z,1984.00
2017-10-20T08:39:36.467Z,2052.00
2017-10-20T08:41:29.861Z,2340.00
2017-10-20T08:42:29.854Z,2500.00
2017-10-20T08:44:23.387Z,2880.00
2017-10-20T08:45:23.377Z,3120.00
2017-10-20T08:47:16.755Z,3380.00
2017-10-20T08:48:16.762Z,3456.00
2017-10-20T08:50:10.161Z,4112.00
2017-10-20T08:51:10.499Z,4372.00
2017-10-20T08:53:03.580Z,4216.00
2017-10-20T08:54:03.531Z,4520.00
2017-10-20T08:55:56.904Z,4664.00
2017-10-20T08:56:56.979Z,5100.00
2017-10-20T08:58:50.526Z,5296.00
2017-10-20T08:59:50.553Z,4948.00
2017-10-20T09:01:45.037Z,4124.00
2017-10-20T09:02:44.958Z,3876.00
2017-10-20T09:04:38.379Z,3524.00
2017-10-20T09:05:38.397Z,3500.00
2017-10-20T09:07:32.781Z,3400.00
2017-10-20T09:08:32.895Z,3344.00
2017-10-20T09:10:26.258Z,3136.00
2017-10-20T09:11:26.195Z,3100.00
2017-10-20T09:13:20.507Z,3192.00
2017-10-20T09:14:20.007Z,3024.00
2017-10-20T09:16:12.957Z,2896.00
2017-10-20T09:17:12.969Z,2868.00
2017-10-20T09:19:06.423Z,2872.00
2017-10-20T09:20:06.427Z,2964.00
2017-10-20T09:22:00.871Z,3168.00
2017-10-20T09:23:00.895Z,3312.00
2017-10-20T09:24:54.319Z,3380.00
2017-10-20T09:25:54.332Z,3508.00
2017-10-20T09:27:47.701Z,3896.00
2017-10-20T09:28:47.727Z,3924.00
2017-10-20T09:30:41.143Z,4152.00
2017-10-20T09:31:41.158Z,4128.00
2017-10-20T09:33:34.525Z,4564.00
2017-10-20T09:34:34.554Z,4676.00
2017-10-20T09:36:27.946Z,4776.00
2017-10-20T09:37:28.170Z,4932.00
2017-10-20T09:39:21.399Z,5552.00
2017-10-20T09:40:21.460Z,5804.00
2017-10-20T09:42:14.837Z,6068.00
2017-10-20T09:43:14.814Z,6356.00
2017-10-20T09:45:08.229Z,7664.00
2017-10-20T09:46:08.242Z,6608.00
2017-10-20T09:48:03.372Z,6712.00
2017-10-20T09:49:03.390Z,8456.00
2017-10-20T09:50:56.750Z,7536.00
2017-10-20T09:51:56.783Z,9096.00
2017-10-20T09:53:51.060Z,6692.00
2017-10-20T09:54:50.155Z,7216.00
2017-10-20T09:56:43.561Z,7596.00
2017-10-20T09:57:44.163Z,8560.00
2017-10-20T09:59:36.969Z,8516.00
2017-10-20T10:00:36.963Z,7952.00
2017-10-20T10:02:30.339Z,10020.00
2017-10-20T10:03:30.385Z,8708.00
2017-10-20T10:05:23.815Z,16800.00
2017-10-20T10:06:23.815Z,15008.00
2017-10-20T10:08:17.325Z,13012.00
2017-10-20T10:09:17.226Z,11960.00
2017-10-20T10:11:10.589Z,10480.00
2017-10-20T10:12:10.674Z,9332.00
2017-10-20T10:14:04.071Z,22624.00
2017-10-20T10:15:04.056Z,20992.00
2017-10-20T10:16:58.451Z,24928.00
2017-10-20T10:17:58.454Z,27072.00
2017-10-20T10:19:51.894Z,33888.00
2017-10-20T10:20:51.830Z,29632.00
2017-10-20T10:22:45.316Z,14624.00
2017-10-20T10:23:45.335Z,10896.00
2017-10-20T10:25:38.720Z,11000.00
2017-10-20T10:26:38.740Z,12588.00
2017-10-20T10:28:32.117Z,11636.00
2017-10-20T10:29:32.174Z,10912.00
2017-10-20T10:31:25.604Z,14656.00
2017-10-20T10:32:25.602Z,17056.00
2017-10-20T10:34:19.001Z,28608.00
2017-10-20T10:35:18.993Z,22752.00
2017-10-20T10:37:12.421Z,30112.00
2017-10-20T10:38:12.403Z,43744.00
2017-10-20T10:40:05.771Z,50816.00
2017-10-20T10:41:05.796Z,46240.00
2017-10-20T10:42:59.243Z,55040.00
2017-10-20T10:43:59.231Z,55360.00
2017-10-20T10:45:52.663Z,55040.00
2017-10-20T10:46:52.663Z,53312.00
2017-10-20T10:48:47.104Z,42848.00
2017-10-20T10:49:47.123Z,37344.00
2017-10-20T10:51:40.588Z,36608.00
2017-10-20T10:52:40.613Z,37408.00
2017-10-20T10:54:33.973Z,43552.00
2017-10-20T10:55:33.991Z,43360.00
2017-10-20T10:57:27.414Z,40640.00
2017-10-20T10:58:27.445Z,43552.00
2017-10-20T11:00:20.826Z,48576.00
2017-10-20T11:01:20.856Z,44640.00
2017-10-20T11:03:14.275Z,47040.00
2017-10-20T11:04:14.302Z,46592.00
2017-10-20T11:06:07.701Z,44128.00
2017-10-20T11:07:07.715Z,45056.00
2017-10-20T11:09:01.166Z,57184.00
2017-10-20T11:10:01.146Z,51744.00
2017-10-20T11:11:54.555Z,47328.00
2017-10-20T11:12:54.575Z,43264.00
2017-10-20T11:14:48.005Z,37312.00
2017-10-20T11:15:48.043Z,37024.00
2017-10-20T11:17:41.453Z,35616.00
2017-10-20T11:18:41.463Z,32384.00
2017-10-20T11:20:34.881Z,29440.00
2017-10-20T11:21:34.886Z,27968.00
2017-10-20T11:23:28.311Z,26144.00
2017-10-20T11:24:28.354Z,26112.00
2017-10-20T11:26:21.770Z,23456.00
2017-10-20T11:27:21.774Z,24096.00
2017-10-20T11:29:15.202Z,23904.00
2017-10-20T11:30:15.219Z,22048.00
2017-10-20T11:32:08.618Z,19744.00
2017-10-20T11:33:08.649Z,19200.00
2017-10-20T11:35:02.097Z,20544.00
2017-10-20T11:36:02.087Z,22144.00
2017-10-20T11:37:55.550Z,28864.00
2017-10-20T11:38:55.537Z,28352.00
2017-10-20T11:40:48.980Z,20992.00
2017-10-20T11:41:48.976Z,20064.00
2017-10-20T11:43:43.456Z,19168.00
2017-10-20T11:44:43.390Z,17536.00
2017-10-20T11:46:36.834Z,16512.00
2017-10-20T11:47:36.844Z,16064.00
2017-10-20T11:49:30.242Z,16160.00
2017-10-20T11:50:30.297Z,14880.00
2017-10-20T11:52:23.665Z,15264.00
2017-10-20T11:53:23.742Z,18816.00
2017-10-20T11:55:17.164Z,11796.00
2017-10-20T11:56:17.098Z,10660.00
2017-10-20T11:58:10.596Z,9552.00
2017-10-20T11:59:11.496Z,9468.00
2017-10-20T12:01:04.958Z,9436.00
2017-10-20T12:02:04.976Z,10224.00
2017-10-20T12:03:58.391Z,20448.00
2017-10-20T12:04:58.411Z,22880.00
2017-10-20T12:06:51.825Z,19104.00
2017-10-20T12:07:51.875Z,17664.00
2017-10-20T12:09:45.292Z,17248.00
2017-10-20T12:10:45.252Z,16256.00
2017-10-20T12:12:38.677Z,16448.00
2017-10-20T12:13:38.657Z,15008.00
2017-10-20T12:15:32.080Z,10764.00
2017-10-20T12:16:32.111Z,13996.00
2017-10-20T12:18:25.550Z,15072.00
2017-10-20T12:19:25.576Z,10516.00
2017-10-20T12:21:18.923Z,14752.00
2017-10-20T12:22:18.962Z,14240.00
2017-10-20T12:24:12.362Z,15872.00
2017-10-20T12:25:12.383Z,16960.00
2017-10-20T12:27:05.766Z,16512.00
2017-10-20T12:28:05.804Z,14624.00
2017-10-20T12:29:59.244Z,12520.00
2017-10-20T12:30:59.253Z,12316.00
2017-10-20T12:32:52.669Z,7548.00
2017-10-20T12:33:52.676Z,9100.00
2017-10-20T12:35:46.091Z,8092.00
2017-10-20T12:36:46.091Z,14016.00
2017-10-20T12:38:39.492Z,6420.00
2017-10-20T12:39:39.508Z,5908.00
2017-10-20T12:41:32.901Z,12356.00
2017-10-20T12:42:32.951Z,10084.00
2017-10-20T12:44:26.354Z,12580.00
2017-10-20T12:45:26.410Z,12284.00
2017-10-20T12:47:19.747Z,11568.00
2017-10-20T12:48:19.788Z,10736.00
2017-10-20T12:50:13.198Z,10756.00
2017-10-20T12:51:13.181Z,10816.00
2017-10-20T12:53:06.580Z,5968.00
2017-10-20T12:54:06.596Z,6808.00
2017-10-20T12:56:00.055Z,8880.00
2017-10-20T12:57:00.015Z,9800.00
2017-10-20T12:58:53.448Z,7668.00
2017-10-20T12:59:53.448Z,7764.00
2017-10-20T13:01:46.893Z,9448.00
2017-10-20T13:02:46.902Z,8552.00
2017-10-20T13:04:40.300Z,7696.00
2017-10-20T13:05:40.321Z,7312.00
2017-10-20T13:07:33.780Z,5772.00
2017-10-20T13:08:33.744Z,5804.00
2017-10-20T13:10:27.154Z,6288.00
2017-10-20T13:11:27.172Z,6636.00
2017-10-20T13:13:20.604Z,7088.00
2017-10-20T13:14:20.597Z,7316.00
2017-10-20T13:16:13.982Z,7556.00
2017-10-20T13:17:14.016Z,7860.00
2017-10-20T13:19:08.434Z,8728.00
2017-10-20T13:20:08.452Z,9092.00
2017-10-20T13:22:01.895Z,7792.00
2017-10-20T13:23:01.833Z,10484.00
2017-10-20T13:24:55.387Z,10264.00
2017-10-20T13:25:56.350Z,9648.00
2017-10-20T13:27:48.737Z,8924.00
2017-10-20T13:28:48.696Z,8656.00
2017-10-20T13:30:42.091Z,6728.00
2017-10-20T13:31:42.243Z,6008.00
2017-10-20T13:33:35.516Z,6388.00
2017-10-20T13:34:35.541Z,6076.00
2017-10-20T13:36:28.967Z,4420.00
2017-10-20T13:37:28.974Z,3880.00
2017-10-20T13:39:22.355Z,4216.00
2017-10-20T13:40:22.406Z,4204.00
2017-10-20T13:42:15.813Z,3612.00
2017-10-20T13:43:15.801Z,3044.00
2017-10-20T13:45:09.245Z,2500.00
2017-10-20T13:46:09.215Z,2236.00
2017-10-20T13:48:02.673Z,2600.00
2017-10-20T13:49:02.641Z,2732.00
2017-10-20T13:50:56.014Z,2700.00
2017-10-20T13:51:56.083Z,2748.00
2017-10-20T13:53:49.467Z,2540.00
2017-10-20T13:54:49.471Z,2496.00
2017-10-20T13:56:42.861Z,2548.00
2017-10-20T13:57:42.886Z,2456.00
2017-10-20T13:59:36.292Z,2848.00
2017-10-20T14:00:36.298Z,3288.00
2017-10-20T14:02:29.681Z,3440.00
2017-10-20T14:03:29.745Z,3540.00
2017-10-20T14:05:23.172Z,3524.00
2017-10-20T14:06:23.102Z,3808.00
2017-10-20T14:08:16.589Z,4000.00
2017-10-20T14:09:16.575Z,3896.00
2017-10-20T14:11:10.982Z,3624.00
2017-10-20T14:12:10.976Z,3444.00
2017-10-20T14:14:05.373Z,3084.00
2017-10-20T14:15:05.393Z,3644.00
2017-10-20T14:16:58.845Z,3336.00
2017-10-20T14:17:58.829Z,3456.00
2017-10-20T14:19:52.165Z,3596.00
2017-10-20T14:20:52.207Z,3624.00
2017-10-20T14:22:46.625Z,4780.00
2017-10-20T14:25:18.708Z,4576.00
2017-10-20T14:26:18.721Z,4208.00
2017-10-20T14:28:12.139Z,2924.00
2017-10-20T14:29:12.137Z,2552.00
2017-10-20T14:31:05.536Z,2356.00
2017-10-20T14:32:05.542Z,2388.00
2017-10-20T14:33:58.975Z,2340.00
2017-10-20T14:34:58.956Z,2288.00
2017-10-20T14:36:52.353Z,2208.00
2017-10-20T14:37:52.361Z,2392.00
2017-10-20T14:39:45.779Z,2476.00
2017-10-20T14:40:45.776Z,2432.00
2017-10-20T14:42:39.176Z,2688.00
2017-10-20T14:43:39.185Z,2716.00
2017-10-20T14:45:32.603Z,2204.00
2017-10-20T14:46:32.600Z,1944.00
2017-10-20T14:48:25.997Z,1476.00
2017-10-20T14:49:26.005Z,1388.00
2017-10-20T14:51:19.429Z,928.00
2017-10-20T14:52:19.421Z,700.00
2017-10-20T14:54:12.338Z,720.00
2017-10-20T14:55:12.333Z,732.00
2017-10-20T14:57:05.728Z,808.00
2017-10-20T14:58:05.740Z,852.00
2017-10-20T14:59:59.155Z,680.00
2017-10-20T15:00:59.708Z,596.00
2017-10-20T15:02:52.547Z,484.00
2017-10-20T15:03:52.556Z,436.00
2017-10-20T15:05:45.977Z,372.00
2017-10-20T15:06:45.966Z,388.00
2017-10-20T15:08:38.874Z,396.00
2017-10-20T15:09:39.489Z,384.00
2017-10-20T15:11:32.363Z,372.00
2017-10-20T15:12:32.327Z,352.00
2017-10-20T15:14:25.722Z,368.00
2017-10-20T15:15:25.727Z,392.00
2017-10-20T15:17:26.772Z,452.00
2017-10-20T15:18:20.048Z,464.00
2017-10-20T15:20:12.564Z,484.00
2017-10-20T15:21:12.738Z,432.00
2017-10-20T15:23:05.995Z,344.00
2017-10-20T15:24:05.981Z,260.00
2017-10-20T15:25:59.605Z,224.00
2017-10-20T15:26:59.423Z,240.00
2017-10-20T15:28:52.826Z,284.00
2017-10-20T15:29:52.817Z,312.00
2017-10-20T15:31:46.248Z,292.00
2017-10-20T15:32:46.257Z,288.00
2017-10-20T15:34:39.675Z,300.00
2017-10-20T15:35:39.665Z,312.00
2017-10-20T15:37:32.587Z,288.00
2017-10-20T15:38:32.576Z,292.00
2017-10-20T15:40:25.980Z,280.00
2017-10-20T15:41:26.002Z,292.00
2017-10-20T15:43:19.427Z,276.00
2017-10-20T15:44:19.413Z,272.00
2017-10-20T15:46:13.233Z,288.00
2017-10-20T15:47:12.861Z,260.00
2017-10-20T15:49:08.980Z,224.00
2017-10-20T15:50:06.266Z,188.00
2017-10-20T15:51:59.676Z,160.00
2017-10-20T15:52:59.678Z,148.00
2017-10-20T15:54:53.097Z,132.00
2017-10-20T15:55:53.093Z,116.00
2017-10-20T15:57:46.515Z,80.00
2017-10-20T15:58:46.504Z,72.00
2017-10-20T16:00:39.903Z,64.00
2017-10-20T16:01:39.910Z,60.00
2017-10-20T16:03:33.339Z,68.00
2017-10-20T16:04:33.326Z,72.00
2017-10-20T16:06:26.750Z,60.00
2017-10-20T16:07:26.760Z,52.00
2017-10-20T16:09:20.180Z,36.00
2017-10-20T16:10:20.167Z,40.00
2017-10-20T16:12:13.566Z,60.00
2017-10-20T16:13:13.577Z,68.00
2017-10-20T16:15:06.991Z,60.00
2017-10-20T16:16:07.000Z,52.00
2017-10-20T16:18:00.380Z,40.00
2017-10-20T16:19:00.384Z,36.00
2017-10-20T16:20:53.808Z,32.00
2017-10-20T16:21:53.797Z,28.00
2017-10-20T16:23:47.328Z,20.00
2017-10-20T16:24:47.318Z,20.00
2017-10-20T16:26:40.726Z,16.00
2017-10-20T16:27:40.740Z,12.00
2017-10-20T16:29:34.119Z,12.00
2017-10-20T16:30:34.116Z,8.00
2017-10-20T16:32:28.591Z,4.00
2017-10-20T16:33:28.570Z,8.00
2017-10-20T16:35:21.959Z,4.00
2017-10-20T16:36:21.942Z,4.00
2017-10-20T16:38:15.358Z,0.00
2017-10-20T16:39:15.375Z,0.00
2017-10-20T16:41:08.797Z,4.00
2017-10-20T16:42:08.797Z,4.00
2017-10-20T16:44:02.189Z,4.00
2017-10-20T16:45:02.205Z,0.00
2017-10-20T16:46:55.614Z,0.00
2017-10-20T16:47:55.744Z,0.00
2017-10-20T16:49:49.669Z,0.00
2017-10-20T16:50:49.721Z,0.00
2017-10-20T16:52:45.377Z,0.00
2017-10-20T16:53:45.219Z,0.00
2017-10-20T16:55:39.963Z,0.00
2017-10-20T16:56:39.911Z,0.00
2017-10-20T16:58:35.666Z,0.00
2017-10-20T16:59:34.336Z,0.00
2017-10-20T17:02:14.111Z,0.00
2017-10-20T17:03:15.013Z,0.00
2017-10-20T17:05:07.540Z,0.00
2017-10-20T17:06:07.665Z,0.00
2017-10-20T17:08:02.947Z,0.00
2017-10-20T17:09:03.020Z,0.00
2017-10-20T17:10:57.484Z,0.00
2017-10-20T17:11:57.444Z,0.00
2017-10-20T17:13:51.867Z,0.00
2017-10-20T17:14:51.813Z,0.00
2017-10-20T17:16:45.486Z,0.00
2017-10-20T17:17:45.317Z,0.00
2017-10-20T17:19:38.762Z,0.00
2017-10-20T17:20:40.122Z,0.00
2017-10-20T17:22:32.230Z,0.00
2017-10-20T17:23:32.217Z,0.00
2017-10-20T17:25:25.682Z,0.00
2017-10-20T17:26:25.639Z,0.00
2017-10-20T17:28:19.047Z,0.00
2017-10-20T17:29:19.031Z,0.00
2017-10-20T17:31:12.441Z,0.00
2017-10-20T17:32:12.431Z,0.00
2017-10-20T17:34:05.860Z,0.00
2017-10-20T17:35:05.831Z,0.00
2017-10-20T17:36:59.223Z,0.00
2017-10-20T17:37:59.234Z,0.00
2017-10-20T17:39:52.681Z,0.00
2017-10-20T17:40:52.645Z,0.00
2017-10-20T17:42:46.065Z,0.00
2017-10-20T17:43:46.069Z,0.00
2017-10-20T17:45:39.475Z,0.00
2017-10-20T17:46:39.462Z,0.00
2017-10-20T17:48:32.854Z,0.00
2017-10-20T17:49:32.868Z,0.00
2017-10-20T17:51:26.282Z,0.00
2017-10-20T17:52:26.274Z,0.00
2017-10-20T17:54:19.690Z,0.00
2017-10-20T17:55:19.703Z,0.00
2017-10-20T17:57:13.114Z,0.00
2017-10-20T17:58:13.109Z,0.00
2017-10-20T18:00:06.564Z,0.00
2017-10-20T18:01:07.105Z,0.00
2017-10-20T18:03:00.037Z,0.00
2017-10-20T18:04:00.052Z,0.00
2017-10-20T18:05:53.450Z,0.00
2017-10-20T18:06:53.421Z,0.00
2017-10-20T18:08:47.402Z,0.00
2017-10-20T18:09:47.204Z,0.00
2017-10-20T18:11:40.637Z,0.00
2017-10-20T18:12:40.897Z,0.00
2017-10-20T18:14:34.930Z,0.00